sensor_id;sensor_type;location;lat;lon;timestamp;P1;durP1;ratioP1;P2;durP2;ratioP2
55150;SDS011;41041;43.162;20.538;2023-06-10T00:01:06;10.02;;;6.28;;
55150;SDS011;41041;43.162;20.538;2023-06-10T00:03:32;7.70;;;5.82;;
55150;SDS011;41041;43.162;20.538;2023-06-10T00:05:58;7.32;;;5.55;;
55150;SDS011;41041;43.162;20.538;2023-06-10T00:08:24;10.30;;;6.13;;
55150;SDS011;41041;43.162;20.538;2023-06-10T00:10:50;12.05;;;6.35;;
55150;SDS011;41041;43.162;20.538;2023-06-10T00:13:16;7.68;;;6.28;;
55150;SDS011;41041;43.162;20.538;2023-06-10T00:15:43;9.85;;;6.78;;
55150;SDS011;41041;43.162;20.538;2023-06-10T00:18:10;14.75;;;6.63;;
55150;SDS011;41041;43.162;20.538;2023-06-10T00:20:36;9.20;;;6.45;;
55150;SDS011;41041;43.162;20.538;2023-06-10T00:23:02;7.07;;;5.18;;
55150;SDS011;41041;43.162;20.538;2023-06-10T00:25:31;9.07;;;5.40;;
55150;SDS011;41041;43.162;20.538;2023-06-10T00:27:58;9.40;;;4.90;;
55150;SDS011;41041;43.162;20.538;2023-06-10T00:30:24;9.00;;;5.32;;
55150;SDS011;41041;43.162;20.538;2023-06-10T00:32:50;8.43;;;5.40;;
55150;SDS011;41041;43.162;20.538;2023-06-10T00:35:16;9.88;;;5.63;;
55150;SDS011;41041;43.162;20.538;2023-06-10T00:37:42;7.38;;;4.93;;
55150;SDS011;41041;43.162;20.538;2023-06-10T00:40:08;8.18;;;4.97;;
55150;SDS011;41041;43.162;20.538;2023-06-10T00:42:35;7.78;;;5.60;;
55150;SDS011;41041;43.162;20.538;2023-06-10T00:45:01;8.50;;;5.35;;
55150;SDS011;41041;43.162;20.538;2023-06-10T00:47:27;7.80;;;6.05;;
55150;SDS011;41041;43.162;20.538;2023-06-10T00:49:54;9.63;;;5.80;;
55150;SDS011;41041;43.162;20.538;2023-06-10T00:52:20;7.65;;;5.63;;
55150;SDS011;41041;43.162;20.538;2023-06-10T00:54:47;9.18;;;5.97;;
55150;SDS011;41041;43.162;20.538;2023-06-10T00:57:28;9.65;;;5.57;;
55150;SDS011;41041;43.162;20.538;2023-06-10T00:59:54;7.78;;;5.70;;
55150;SDS011;41041;43.162;20.538;2023-06-10T01:04:52;11.25;;;5.50;;
55150;SDS011;41041;43.162;20.538;2023-06-10T01:07:25;9.73;;;5.07;;
55150;SDS011;41041;43.162;20.538;2023-06-10T01:10:02;9.07;;;5.38;;
55150;SDS011;41041;43.162;20.538;2023-06-10T01:15:07;8.82;;;6.18;;
55150;SDS011;41041;43.162;20.538;2023-06-10T01:17:36;9.77;;;5.77;;
55150;SDS011;41041;43.162;20.538;2023-06-10T01:22:37;7.10;;;5.30;;
55150;SDS011;41041;43.162;20.538;2023-06-10T01:25:03;7.63;;;5.32;;
55150;SDS011;41041;43.162;20.538;2023-06-10T01:27:32;7.70;;;5.32;;
55150;SDS011;41041;43.162;20.538;2023-06-10T01:30:06;6.40;;;5.20;;
55150;SDS011;41041;43.162;20.538;2023-06-10T01:32:40;11.85;;;5.88;;
55150;SDS011;41041;43.162;20.538;2023-06-10T01:35:06;9.55;;;5.40;;
55150;SDS011;41041;43.162;20.538;2023-06-10T01:37:33;7.88;;;5.63;;
55150;SDS011;41041;43.162;20.538;2023-06-10T01:40:00;8.48;;;5.60;;
55150;SDS011;41041;43.162;20.538;2023-06-10T01:42:30;9.40;;;5.97;;
55150;SDS011;41041;43.162;20.538;2023-06-10T01:44:57;7.43;;;5.50;;
55150;SDS011;41041;43.162;20.538;2023-06-10T01:47:24;7.10;;;4.47;;
55150;SDS011;41041;43.162;20.538;2023-06-10T01:49:50;9.23;;;4.72;;
55150;SDS011;41041;43.162;20.538;2023-06-10T01:52:16;9.43;;;4.88;;
55150;SDS011;41041;43.162;20.538;2023-06-10T01:54:43;9.68;;;4.80;;
55150;SDS011;41041;43.162;20.538;2023-06-10T01:57:09;8.98;;;4.70;;
55150;SDS011;41041;43.162;20.538;2023-06-10T01:59:35;6.43;;;4.60;;
55150;SDS011;41041;43.162;20.538;2023-06-10T02:02:03;6.75;;;5.10;;
55150;SDS011;41041;43.162;20.538;2023-06-10T02:04:29;8.27;;;5.15;;
55150;SDS011;41041;43.162;20.538;2023-06-10T02:06:55;7.68;;;5.03;;
55150;SDS011;41041;43.162;20.538;2023-06-10T02:09:22;7.30;;;4.95;;
55150;SDS011;41041;43.162;20.538;2023-06-10T02:11:48;5.80;;;4.55;;
55150;SDS011;41041;43.162;20.538;2023-06-10T02:14:14;9.55;;;4.80;;
55150;SDS011;41041;43.162;20.538;2023-06-10T02:16:40;8.82;;;5.05;;
55150;SDS011;41041;43.162;20.538;2023-06-10T02:19:11;8.48;;;5.28;;
55150;SDS011;41041;43.162;20.538;2023-06-10T02:21:37;8.88;;;5.28;;
55150;SDS011;41041;43.162;20.538;2023-06-10T02:24:04;7.50;;;5.05;;
55150;SDS011;41041;43.162;20.538;2023-06-10T02:26:30;9.82;;;4.75;;
55150;SDS011;41041;43.162;20.538;2023-06-10T02:28:56;7.13;;;4.80;;
55150;SDS011;41041;43.162;20.538;2023-06-10T02:31:22;7.32;;;4.78;;
55150;SDS011;41041;43.162;20.538;2023-06-10T02:33:50;6.90;;;4.57;;
55150;SDS011;41041;43.162;20.538;2023-06-10T02:36:16;9.27;;;4.35;;
55150;SDS011;41041;43.162;20.538;2023-06-10T02:38:42;8.82;;;4.65;;
55150;SDS011;41041;43.162;20.538;2023-06-10T02:41:08;6.03;;;4.28;;
55150;SDS011;41041;43.162;20.538;2023-06-10T02:43:34;9.32;;;4.85;;
55150;SDS011;41041;43.162;20.538;2023-06-10T02:46:00;8.65;;;4.70;;
55150;SDS011;41041;43.162;20.538;2023-06-10T02:48:27;8.50;;;4.43;;
55150;SDS011;41041;43.162;20.538;2023-06-10T02:50:53;8.77;;;4.10;;
55150;SDS011;41041;43.162;20.538;2023-06-10T02:53:20;4.90;;;3.80;;
55150;SDS011;41041;43.162;20.538;2023-06-10T02:55:47;5.68;;;3.92;;
55150;SDS011;41041;43.162;20.538;2023-06-10T02:58:13;7.32;;;4.20;;
55150;SDS011;41041;43.162;20.538;2023-06-10T03:00:40;8.77;;;4.22;;
55150;SDS011;41041;43.162;20.538;2023-06-10T03:03:07;6.60;;;3.90;;
55150;SDS011;41041;43.162;20.538;2023-06-10T03:05:35;10.18;;;3.97;;
55150;SDS011;41041;43.162;20.538;2023-06-10T03:08:01;6.95;;;4.30;;
55150;SDS011;41041;43.162;20.538;2023-06-10T03:10:27;7.57;;;4.30;;
55150;SDS011;41041;43.162;20.538;2023-06-10T03:12:53;8.02;;;4.53;;
55150;SDS011;41041;43.162;20.538;2023-06-10T03:15:19;7.28;;;4.07;;
55150;SDS011;41041;43.162;20.538;2023-06-10T03:17:46;8.80;;;4.00;;
55150;SDS011;41041;43.162;20.538;2023-06-10T03:20:12;7.93;;;3.80;;
55150;SDS011;41041;43.162;20.538;2023-06-10T03:22:40;6.22;;;4.20;;
55150;SDS011;41041;43.162;20.538;2023-06-10T03:25:06;9.80;;;4.50;;
55150;SDS011;41041;43.162;20.538;2023-06-10T03:30:09;10.73;;;4.97;;
55150;SDS011;41041;43.162;20.538;2023-06-10T03:32:35;12.57;;;5.10;;
55150;SDS011;41041;43.162;20.538;2023-06-10T03:35:01;10.65;;;4.70;;
55150;SDS011;41041;43.162;20.538;2023-06-10T03:37:27;11.82;;;4.85;;
55150;SDS011;41041;43.162;20.538;2023-06-10T03:39:53;10.00;;;4.88;;
55150;SDS011;41041;43.162;20.538;2023-06-10T03:42:24;8.93;;;4.60;;
55150;SDS011;41041;43.162;20.538;2023-06-10T03:44:50;10.77;;;4.60;;
55150;SDS011;41041;43.162;20.538;2023-06-10T03:47:16;7.78;;;4.15;;
55150;SDS011;41041;43.162;20.538;2023-06-10T03:49:42;9.75;;;4.32;;
55150;SDS011;41041;43.162;20.538;2023-06-10T03:52:08;9.32;;;4.22;;
55150;SDS011;41041;43.162;20.538;2023-06-10T03:54:47;9.90;;;4.30;;
55150;SDS011;41041;43.162;20.538;2023-06-10T03:57:14;5.88;;;3.75;;
55150;SDS011;41041;43.162;20.538;2023-06-10T03:59:40;10.25;;;4.00;;
55150;SDS011;41041;43.162;20.538;2023-06-10T04:02:06;6.32;;;3.90;;
55150;SDS011;41041;43.162;20.538;2023-06-10T04:04:33;16.27;;;4.45;;
55150;SDS011;41041;43.162;20.538;2023-06-10T04:07:01;8.55;;;4.60;;
55150;SDS011;41041;43.162;20.538;2023-06-10T04:09:27;7.28;;;3.90;;
55150;SDS011;41041;43.162;20.538;2023-06-10T04:11:53;4.68;;;3.53;;
55150;SDS011;41041;43.162;20.538;2023-06-10T04:14:19;8.38;;;3.92;;
55150;SDS011;41041;43.162;20.538;2023-06-10T04:16:46;10.75;;;4.30;;
55150;SDS011;41041;43.162;20.538;2023-06-10T04:19:12;10.10;;;4.55;;
55150;SDS011;41041;43.162;20.538;2023-06-10T04:21:38;10.25;;;4.55;;
55150;SDS011;41041;43.162;20.538;2023-06-10T04:24:04;8.85;;;5.28;;
55150;SDS011;41041;43.162;20.538;2023-06-10T04:26:30;10.32;;;4.60;;
55150;SDS011;41041;43.162;20.538;2023-06-10T04:28:56;5.43;;;3.75;;
55150;SDS011;41041;43.162;20.538;2023-06-10T04:31:22;6.47;;;3.63;;
55150;SDS011;41041;43.162;20.538;2023-06-10T04:33:48;7.40;;;4.10;;
55150;SDS011;41041;43.162;20.538;2023-06-10T04:36:14;10.27;;;4.00;;
55150;SDS011;41041;43.162;20.538;2023-06-10T04:38:41;10.55;;;3.83;;
55150;SDS011;41041;43.162;20.538;2023-06-10T04:41:07;8.55;;;3.83;;
55150;SDS011;41041;43.162;20.538;2023-06-10T04:43:33;5.53;;;4.10;;
55150;SDS011;41041;43.162;20.538;2023-06-10T04:45:59;8.88;;;4.68;;
55150;SDS011;41041;43.162;20.538;2023-06-10T04:48:25;9.32;;;3.90;;
55150;SDS011;41041;43.162;20.538;2023-06-10T04:50:51;10.32;;;4.68;;
55150;SDS011;41041;43.162;20.538;2023-06-10T04:55:48;9.23;;;5.37;;
55150;SDS011;41041;43.162;20.538;2023-06-10T04:58:14;13.52;;;5.47;;
55150;SDS011;41041;43.162;20.538;2023-06-10T05:00:40;13.10;;;5.57;;
55150;SDS011;41041;43.162;20.538;2023-06-10T05:03:10;10.30;;;5.15;;
55150;SDS011;41041;43.162;20.538;2023-06-10T05:05:36;8.85;;;4.68;;
55150;SDS011;41041;43.162;20.538;2023-06-10T05:08:03;10.63;;;4.38;;
55150;SDS011;41041;43.162;20.538;2023-06-10T05:10:29;6.20;;;3.80;;
55150;SDS011;41041;43.162;20.538;2023-06-10T05:12:57;8.00;;;4.18;;
55150;SDS011;41041;43.162;20.538;2023-06-10T05:15:23;6.35;;;4.30;;
55150;SDS011;41041;43.162;20.538;2023-06-10T05:17:49;10.27;;;4.50;;
55150;SDS011;41041;43.162;20.538;2023-06-10T05:20:16;8.55;;;4.90;;
55150;SDS011;41041;43.162;20.538;2023-06-10T05:22:43;11.98;;;5.35;;
55150;SDS011;41041;43.162;20.538;2023-06-10T05:25:09;9.77;;;4.95;;
55150;SDS011;41041;43.162;20.538;2023-06-10T05:27:36;12.48;;;5.88;;
55150;SDS011;41041;43.162;20.538;2023-06-10T05:33:06;13.43;;;5.72;;
55150;SDS011;41041;43.162;20.538;2023-06-10T05:35:32;13.48;;;5.85;;
55150;SDS011;41041;43.162;20.538;2023-06-10T05:37:58;15.13;;;5.72;;
55150;SDS011;41041;43.162;20.538;2023-06-10T05:40:24;10.35;;;6.10;;
55150;SDS011;41041;43.162;20.538;2023-06-10T05:42:50;10.93;;;6.30;;
55150;SDS011;41041;43.162;20.538;2023-06-10T05:45:16;9.82;;;6.10;;
55150;SDS011;41041;43.162;20.538;2023-06-10T05:47:45;11.52;;;6.72;;
55150;SDS011;41041;43.162;20.538;2023-06-10T05:50:11;16.70;;;7.28;;
55150;SDS011;41041;43.162;20.538;2023-06-10T05:52:41;10.93;;;6.78;;
55150;SDS011;41041;43.162;20.538;2023-06-10T05:55:07;10.07;;;6.80;;
55150;SDS011;41041;43.162;20.538;2023-06-10T06:00:27;19.95;;;7.15;;
55150;SDS011;41041;43.162;20.538;2023-06-10T06:05:23;9.68;;;6.18;;
55150;SDS011;41041;43.162;20.538;2023-06-10T06:07:50;13.88;;;5.85;;
55150;SDS011;41041;43.162;20.538;2023-06-10T06:10:16;17.98;;;6.45;;
55150;SDS011;41041;43.162;20.538;2023-06-10T06:12:43;14.38;;;6.40;;
55150;SDS011;41041;43.162;20.538;2023-06-10T06:15:09;11.23;;;6.00;;
55150;SDS011;41041;43.162;20.538;2023-06-10T06:17:37;10.73;;;6.30;;
55150;SDS011;41041;43.162;20.538;2023-06-10T06:20:03;10.70;;;6.72;;
55150;SDS011;41041;43.162;20.538;2023-06-10T06:22:29;8.18;;;5.82;;
55150;SDS011;41041;43.162;20.538;2023-06-10T06:24:55;9.50;;;6.65;;
55150;SDS011;41041;43.162;20.538;2023-06-10T06:27:21;13.75;;;8.90;;
55150;SDS011;41041;43.162;20.538;2023-06-10T06:29:48;20.33;;;8.70;;
55150;SDS011;41041;43.162;20.538;2023-06-10T06:32:15;10.48;;;7.45;;
55150;SDS011;41041;43.162;20.538;2023-06-10T06:34:41;11.77;;;7.53;;
55150;SDS011;41041;43.162;20.538;2023-06-10T06:37:11;10.10;;;7.13;;
55150;SDS011;41041;43.162;20.538;2023-06-10T06:39:37;10.80;;;6.05;;
55150;SDS011;41041;43.162;20.538;2023-06-10T06:42:02;10.50;;;6.82;;
55150;SDS011;41041;43.162;20.538;2023-06-10T06:44:28;8.38;;;5.85;;
55150;SDS011;41041;43.162;20.538;2023-06-10T06:46:54;8.25;;;5.00;;
55150;SDS011;41041;43.162;20.538;2023-06-10T06:49:20;8.52;;;5.25;;
55150;SDS011;41041;43.162;20.538;2023-06-10T06:51:45;7.97;;;5.25;;
55150;SDS011;41041;43.162;20.538;2023-06-10T06:54:11;6.80;;;5.32;;
55150;SDS011;41041;43.162;20.538;2023-06-10T06:56:39;10.88;;;5.30;;
55150;SDS011;41041;43.162;20.538;2023-06-10T06:59:06;13.68;;;5.18;;
55150;SDS011;41041;43.162;20.538;2023-06-10T07:01:33;12.93;;;4.78;;
55150;SDS011;41041;43.162;20.538;2023-06-10T07:03:59;8.85;;;4.60;;
55150;SDS011;41041;43.162;20.538;2023-06-10T07:06:25;9.45;;;4.47;;
55150;SDS011;41041;43.162;20.538;2023-06-10T07:08:52;13.32;;;4.70;;
55150;SDS011;41041;43.162;20.538;2023-06-10T07:11:21;6.43;;;3.40;;
55150;SDS011;41041;43.162;20.538;2023-06-10T07:13:47;7.25;;;3.63;;
55150;SDS011;41041;43.162;20.538;2023-06-10T07:16:13;5.72;;;3.05;;
55150;SDS011;41041;43.162;20.538;2023-06-10T07:18:39;6.50;;;3.25;;
55150;SDS011;41041;43.162;20.538;2023-06-10T07:21:05;7.63;;;3.40;;
55150;SDS011;41041;43.162;20.538;2023-06-10T07:23:31;4.55;;;3.10;;
55150;SDS011;41041;43.162;20.538;2023-06-10T07:25:57;7.15;;;3.03;;
55150;SDS011;41041;43.162;20.538;2023-06-10T07:28:23;7.20;;;3.53;;
55150;SDS011;41041;43.162;20.538;2023-06-10T07:30:49;17.67;;;5.70;;
55150;SDS011;41041;43.162;20.538;2023-06-10T07:33:16;9.70;;;6.20;;
55150;SDS011;41041;43.162;20.538;2023-06-10T07:35:42;25.67;;;15.07;;
55150;SDS011;41041;43.162;20.538;2023-06-10T07:38:08;12.98;;;6.25;;
55150;SDS011;41041;43.162;20.538;2023-06-10T07:40:35;11.98;;;4.72;;
55150;SDS011;41041;43.162;20.538;2023-06-10T07:43:01;13.02;;;8.65;;
55150;SDS011;41041;43.162;20.538;2023-06-10T07:45:27;17.60;;;8.70;;
55150;SDS011;41041;43.162;20.538;2023-06-10T07:47:53;12.55;;;4.15;;
55150;SDS011;41041;43.162;20.538;2023-06-10T07:50:26;9.52;;;3.45;;
55150;SDS011;41041;43.162;20.538;2023-06-10T07:52:52;11.23;;;4.03;;
55150;SDS011;41041;43.162;20.538;2023-06-10T07:55:18;7.47;;;3.17;;
55150;SDS011;41041;43.162;20.538;2023-06-10T07:57:44;10.85;;;3.53;;
55150;SDS011;41041;43.162;20.538;2023-06-10T08:00:10;8.07;;;3.90;;
55150;SDS011;41041;43.162;20.538;2023-06-10T08:02:36;5.50;;;2.78;;
55150;SDS011;41041;43.162;20.538;2023-06-10T08:05:03;4.72;;;2.95;;
55150;SDS011;41041;43.162;20.538;2023-06-10T08:07:29;5.13;;;3.20;;
55150;SDS011;41041;43.162;20.538;2023-06-10T08:09:56;4.38;;;2.88;;
55150;SDS011;41041;43.162;20.538;2023-06-10T08:12:23;5.13;;;3.33;;
55150;SDS011;41041;43.162;20.538;2023-06-10T08:14:49;7.85;;;3.47;;
55150;SDS011;41041;43.162;20.538;2023-06-10T08:17:19;6.60;;;3.40;;
55150;SDS011;41041;43.162;20.538;2023-06-10T08:19:45;6.32;;;3.58;;
55150;SDS011;41041;43.162;20.538;2023-06-10T08:22:11;7.28;;;3.55;;
55150;SDS011;41041;43.162;20.538;2023-06-10T08:24:40;7.65;;;3.30;;
55150;SDS011;41041;43.162;20.538;2023-06-10T08:27:06;7.53;;;3.67;;
55150;SDS011;41041;43.162;20.538;2023-06-10T08:29:32;5.32;;;3.30;;
55150;SDS011;41041;43.162;20.538;2023-06-10T08:31:58;4.80;;;3.22;;
55150;SDS011;41041;43.162;20.538;2023-06-10T08:34:24;5.82;;;3.45;;
55150;SDS011;41041;43.162;20.538;2023-06-10T08:36:50;7.43;;;4.07;;
55150;SDS011;41041;43.162;20.538;2023-06-10T08:39:18;6.25;;;3.92;;
55150;SDS011;41041;43.162;20.538;2023-06-10T08:44:57;5.38;;;4.20;;
55150;SDS011;41041;43.162;20.538;2023-06-10T08:47:24;6.05;;;4.43;;
55150;SDS011;41041;43.162;20.538;2023-06-10T08:49:53;7.47;;;4.47;;
55150;SDS011;41041;43.162;20.538;2023-06-10T08:52:21;6.90;;;4.78;;
55150;SDS011;41041;43.162;20.538;2023-06-10T08:54:58;6.70;;;5.05;;
55150;SDS011;41041;43.162;20.538;2023-06-10T08:57:26;6.20;;;5.13;;
55150;SDS011;41041;43.162;20.538;2023-06-10T08:59:53;7.38;;;5.00;;
55150;SDS011;41041;43.162;20.538;2023-06-10T09:02:20;6.82;;;4.93;;
55150;SDS011;41041;43.162;20.538;2023-06-10T09:04:47;6.57;;;4.95;;
55150;SDS011;41041;43.162;20.538;2023-06-10T09:07:13;6.38;;;4.90;;
55150;SDS011;41041;43.162;20.538;2023-06-10T09:09:39;5.63;;;5.00;;
55150;SDS011;41041;43.162;20.538;2023-06-10T09:12:07;5.95;;;5.22;;
55150;SDS011;41041;43.162;20.538;2023-06-10T09:14:36;7.43;;;5.25;;
55150;SDS011;41041;43.162;20.538;2023-06-10T09:17:02;7.18;;;5.13;;
55150;SDS011;41041;43.162;20.538;2023-06-10T09:19:29;9.75;;;5.38;;
55150;SDS011;41041;43.162;20.538;2023-06-10T09:21:55;10.23;;;5.93;;
55150;SDS011;41041;43.162;20.538;2023-06-10T09:24:24;9.25;;;5.57;;
55150;SDS011;41041;43.162;20.538;2023-06-10T09:27:01;6.35;;;5.45;;
55150;SDS011;41041;43.162;20.538;2023-06-10T09:29:27;7.18;;;5.90;;
55150;SDS011;41041;43.162;20.538;2023-06-10T09:31:54;8.98;;;5.70;;
55150;SDS011;41041;43.162;20.538;2023-06-10T09:34:20;6.65;;;5.57;;
55150;SDS011;41041;43.162;20.538;2023-06-10T09:36:50;7.17;;;5.80;;
55150;SDS011;41041;43.162;20.538;2023-06-10T09:39:17;8.60;;;6.32;;
55150;SDS011;41041;43.162;20.538;2023-06-10T09:41:44;7.20;;;6.15;;
55150;SDS011;41041;43.162;20.538;2023-06-10T09:44:11;7.88;;;5.85;;
55150;SDS011;41041;43.162;20.538;2023-06-10T09:46:38;9.23;;;6.03;;
55150;SDS011;41041;43.162;20.538;2023-06-10T09:49:04;8.55;;;6.50;;
55150;SDS011;41041;43.162;20.538;2023-06-10T09:51:31;8.90;;;6.72;;
55150;SDS011;41041;43.162;20.538;2023-06-10T09:53:57;7.13;;;5.80;;
55150;SDS011;41041;43.162;20.538;2023-06-10T09:56:34;7.68;;;6.50;;
55150;SDS011;41041;43.162;20.538;2023-06-10T09:59:00;11.23;;;7.88;;
55150;SDS011;41041;43.162;20.538;2023-06-10T10:01:27;16.63;;;10.15;;
55150;SDS011;41041;43.162;20.538;2023-06-10T10:03:53;8.00;;;6.07;;
55150;SDS011;41041;43.162;20.538;2023-06-10T10:06:19;8.45;;;6.82;;
55150;SDS011;41041;43.162;20.538;2023-06-10T10:08:46;8.13;;;5.90;;
55150;SDS011;41041;43.162;20.538;2023-06-10T10:11:14;8.45;;;6.20;;
55150;SDS011;41041;43.162;20.538;2023-06-10T10:13:40;6.75;;;5.47;;
55150;SDS011;41041;43.162;20.538;2023-06-10T10:16:14;7.15;;;6.20;;
55150;SDS011;41041;43.162;20.538;2023-06-10T10:19:15;10.15;;;6.20;;
55150;SDS011;41041;43.162;20.538;2023-06-10T10:21:35;8.88;;;6.35;;
55150;SDS011;41041;43.162;20.538;2023-06-10T10:24:13;6.88;;;6.10;;
55150;SDS011;41041;43.162;20.538;2023-06-10T10:26:50;8.90;;;6.07;;
55150;SDS011;41041;43.162;20.538;2023-06-10T10:31:48;8.50;;;6.18;;
55150;SDS011;41041;43.162;20.538;2023-06-10T10:34:16;7.13;;;6.20;;
55150;SDS011;41041;43.162;20.538;2023-06-10T10:36:48;7.13;;;5.82;;
55150;SDS011;41041;43.162;20.538;2023-06-10T10:39:14;8.30;;;6.32;;
55150;SDS011;41041;43.162;20.538;2023-06-10T10:41:43;8.65;;;6.03;;
55150;SDS011;41041;43.162;20.538;2023-06-10T10:46:49;7.72;;;6.50;;
55150;SDS011;41041;43.162;20.538;2023-06-10T10:49:18;7.15;;;6.20;;
55150;SDS011;41041;43.162;20.538;2023-06-10T10:54:46;8.45;;;6.03;;
55150;SDS011;41041;43.162;20.538;2023-06-10T10:57:13;9.68;;;5.80;;
55150;SDS011;41041;43.162;20.538;2023-06-10T10:59:46;6.43;;;5.63;;
55150;SDS011;41041;43.162;20.538;2023-06-10T11:05:42;10.27;;;5.47;;
55150;SDS011;41041;43.162;20.538;2023-06-10T11:08:12;6.32;;;5.40;;
55150;SDS011;41041;43.162;20.538;2023-06-10T11:13:27;9.85;;;5.70;;
55150;SDS011;41041;43.162;20.538;2023-06-10T11:15:56;7.80;;;5.30;;
55150;SDS011;41041;43.162;20.538;2023-06-10T11:20:53;9.00;;;5.88;;
55150;SDS011;41041;43.162;20.538;2023-06-10T11:25:51;12.90;;;5.70;;
55150;SDS011;41041;43.162;20.538;2023-06-10T11:28:21;13.23;;;5.78;;
55150;SDS011;41041;43.162;20.538;2023-06-10T11:30:54;6.18;;;5.55;;
55150;SDS011;41041;43.162;20.538;2023-06-10T11:33:23;7.60;;;5.50;;
55150;SDS011;41041;43.162;20.538;2023-06-10T11:35:50;7.82;;;5.00;;
55150;SDS011;41041;43.162;20.538;2023-06-10T11:38:24;11.02;;;5.28;;
55150;SDS011;41041;43.162;20.538;2023-06-10T11:40:51;11.73;;;5.93;;
55150;SDS011;41041;43.162;20.538;2023-06-10T11:43:17;7.85;;;5.70;;
55150;SDS011;41041;43.162;20.538;2023-06-10T11:45:44;7.25;;;5.43;;
55150;SDS011;41041;43.162;20.538;2023-06-10T11:48:10;6.78;;;5.57;;
55150;SDS011;41041;43.162;20.538;2023-06-10T11:50:38;8.57;;;5.88;;
55150;SDS011;41041;43.162;20.538;2023-06-10T11:53:07;7.47;;;5.72;;
55150;SDS011;41041;43.162;20.538;2023-06-10T11:55:44;9.32;;;5.80;;
55150;SDS011;41041;43.162;20.538;2023-06-10T11:58:14;6.60;;;5.07;;
55150;SDS011;41041;43.162;20.538;2023-06-10T12:00:47;6.60;;;5.15;;
55150;SDS011;41041;43.162;20.538;2023-06-10T12:03:13;6.20;;;5.00;;
55150;SDS011;41041;43.162;20.538;2023-06-10T12:06:03;6.32;;;5.13;;
55150;SDS011;41041;43.162;20.538;2023-06-10T12:08:28;7.30;;;5.50;;
55150;SDS011;41041;43.162;20.538;2023-06-10T12:10:54;6.57;;;5.45;;
55150;SDS011;41041;43.162;20.538;2023-06-10T12:13:37;5.95;;;5.05;;
55150;SDS011;41041;43.162;20.538;2023-06-10T12:16:13;5.80;;;4.68;;
55150;SDS011;41041;43.162;20.538;2023-06-10T12:18:39;7.32;;;5.18;;
55150;SDS011;41041;43.162;20.538;2023-06-10T12:24:10;6.07;;;4.80;;
55150;SDS011;41041;43.162;20.538;2023-06-10T12:26:41;5.40;;;4.38;;
55150;SDS011;41041;43.162;20.538;2023-06-10T12:29:17;5.97;;;4.90;;
55150;SDS011;41041;43.162;20.538;2023-06-10T12:34:19;5.57;;;4.47;;
55150;SDS011;41041;43.162;20.538;2023-06-10T12:37:03;7.13;;;4.43;;
55150;SDS011;41041;43.162;20.538;2023-06-10T12:39:30;6.47;;;4.00;;
55150;SDS011;41041;43.162;20.538;2023-06-10T12:41:56;5.18;;;4.25;;
55150;SDS011;41041;43.162;20.538;2023-06-10T12:44:29;5.68;;;3.90;;
55150;SDS011;41041;43.162;20.538;2023-06-10T12:46:55;6.30;;;4.10;;
55150;SDS011;41041;43.162;20.538;2023-06-10T12:49:21;4.15;;;3.65;;
55150;SDS011;41041;43.162;20.538;2023-06-10T12:51:47;5.85;;;3.75;;
55150;SDS011;41041;43.162;20.538;2023-06-10T12:54:14;4.75;;;3.65;;
55150;SDS011;41041;43.162;20.538;2023-06-10T12:56:40;4.88;;;3.83;;
55150;SDS011;41041;43.162;20.538;2023-06-10T12:59:06;5.05;;;3.67;;
55150;SDS011;41041;43.162;20.538;2023-06-10T13:01:32;5.20;;;3.60;;
55150;SDS011;41041;43.162;20.538;2023-06-10T13:03:58;4.57;;;3.45;;
55150;SDS011;41041;43.162;20.538;2023-06-10T13:06:25;4.13;;;3.28;;
55150;SDS011;41041;43.162;20.538;2023-06-10T13:08:51;4.97;;;3.20;;
55150;SDS011;41041;43.162;20.538;2023-06-10T13:11:17;5.47;;;3.28;;
55150;SDS011;41041;43.162;20.538;2023-06-10T13:13:43;4.72;;;2.97;;
55150;SDS011;41041;43.162;20.538;2023-06-10T13:16:11;4.88;;;3.38;;
55150;SDS011;41041;43.162;20.538;2023-06-10T13:18:37;3.83;;;3.15;;
55150;SDS011;41041;43.162;20.538;2023-06-10T13:21:03;5.07;;;3.53;;
55150;SDS011;41041;43.162;20.538;2023-06-10T13:23:29;4.95;;;3.78;;
55150;SDS011;41041;43.162;20.538;2023-06-10T13:25:56;3.95;;;3.40;;
55150;SDS011;41041;43.162;20.538;2023-06-10T13:28:23;5.65;;;3.40;;
55150;SDS011;41041;43.162;20.538;2023-06-10T13:30:49;4.75;;;3.63;;
55150;SDS011;41041;43.162;20.538;2023-06-10T13:33:15;4.72;;;3.80;;
55150;SDS011;41041;43.162;20.538;2023-06-10T13:35:41;4.15;;;3.47;;
55150;SDS011;41041;43.162;20.538;2023-06-10T13:38:07;4.82;;;3.80;;
55150;SDS011;41041;43.162;20.538;2023-06-10T13:40:33;5.95;;;4.03;;
55150;SDS011;41041;43.162;20.538;2023-06-10T13:43:00;5.10;;;3.20;;
55150;SDS011;41041;43.162;20.538;2023-06-10T13:45:26;4.63;;;3.67;;
55150;SDS011;41041;43.162;20.538;2023-06-10T13:47:53;4.45;;;2.90;;
55150;SDS011;41041;43.162;20.538;2023-06-10T13:50:19;5.45;;;3.60;;
55150;SDS011;41041;43.162;20.538;2023-06-10T13:52:45;3.00;;;2.13;;
55150;SDS011;41041;43.162;20.538;2023-06-10T13:55:11;3.20;;;2.58;;
55150;SDS011;41041;43.162;20.538;2023-06-10T13:57:40;3.50;;;2.63;;
55150;SDS011;41041;43.162;20.538;2023-06-10T14:00:07;4.35;;;2.75;;
55150;SDS011;41041;43.162;20.538;2023-06-10T14:02:35;5.57;;;2.58;;
55150;SDS011;41041;43.162;20.538;2023-06-10T14:05:01;5.50;;;3.13;;
55150;SDS011;41041;43.162;20.538;2023-06-10T14:07:27;15.70;;;4.35;;
55150;SDS011;41041;43.162;20.538;2023-06-10T14:09:55;5.78;;;3.10;;
55150;SDS011;41041;43.162;20.538;2023-06-10T14:12:21;6.15;;;3.00;;
55150;SDS011;41041;43.162;20.538;2023-06-10T14:14:48;5.03;;;3.03;;
55150;SDS011;41041;43.162;20.538;2023-06-10T14:26:06;4.10;;;3.40;;
55150;SDS011;41041;43.162;20.538;2023-06-10T14:28:32;8.70;;;4.82;;
55150;SDS011;41041;43.162;20.538;2023-06-10T14:30:58;5.70;;;4.60;;
55150;SDS011;41041;43.162;20.538;2023-06-10T14:39:32;5.00;;;4.05;;
55150;SDS011;41041;43.162;20.538;2023-06-10T14:41:57;4.75;;;4.28;;
55150;SDS011;41041;43.162;20.538;2023-06-10T14:44:23;5.63;;;4.35;;
55150;SDS011;41041;43.162;20.538;2023-06-10T14:46:49;7.20;;;4.50;;
55150;SDS011;41041;43.162;20.538;2023-06-10T14:49:15;5.65;;;4.78;;
55150;SDS011;41041;43.162;20.538;2023-06-10T14:51:40;5.93;;;4.75;;
55150;SDS011;41041;43.162;20.538;2023-06-10T14:54:06;6.70;;;4.93;;
55150;SDS011;41041;43.162;20.538;2023-06-10T14:56:32;4.85;;;4.25;;
55150;SDS011;41041;43.162;20.538;2023-06-10T14:59:01;5.70;;;4.57;;
55150;SDS011;41041;43.162;20.538;2023-06-10T15:01:27;5.85;;;4.63;;
55150;SDS011;41041;43.162;20.538;2023-06-10T15:03:53;5.68;;;4.68;;
55150;SDS011;41041;43.162;20.538;2023-06-10T15:06:19;5.18;;;4.68;;
55150;SDS011;41041;43.162;20.538;2023-06-10T15:08:48;6.15;;;4.90;;
55150;SDS011;41041;43.162;20.538;2023-06-10T15:14:14;5.85;;;5.10;;
55150;SDS011;41041;43.162;20.538;2023-06-10T15:16:40;6.47;;;5.10;;
55150;SDS011;41041;43.162;20.538;2023-06-10T15:19:06;8.73;;;5.22;;
55150;SDS011;41041;43.162;20.538;2023-06-10T15:21:34;5.85;;;4.97;;
55150;SDS011;41041;43.162;20.538;2023-06-10T15:24:08;5.63;;;4.88;;
55150;SDS011;41041;43.162;20.538;2023-06-10T15:26:34;6.50;;;4.80;;
55150;SDS011;41041;43.162;20.538;2023-06-10T15:29:00;6.00;;;5.00;;
55150;SDS011;41041;43.162;20.538;2023-06-10T15:31:31;5.47;;;4.90;;
55150;SDS011;41041;43.162;20.538;2023-06-10T15:33:58;6.00;;;5.22;;
55150;SDS011;41041;43.162;20.538;2023-06-10T15:36:31;5.43;;;4.72;;
55150;SDS011;41041;43.162;20.538;2023-06-10T15:39:00;5.88;;;5.13;;